Barksdale Air Force Base

KBAD · Louisiana, United States

October 7, 2022

Time Code Weather Temp. Visibility Ceiling Wind METAR/SPECI
08:55
V
18 °C 10 mi - 010° 010° 3 kt METAR KBAD 071355Z AUTO 01003KT 10SM CLR 18/13 A3020 RMK AO2 SLP230 T01800129
07:55
V
15 °C 10 mi - 330° 330° 3 kt METAR KBAD 071255Z AUTO 33003KT 10SM CLR 15/12 A3018 RMK AO2 SLP223 T01460121
06:55
V
14 °C 8 mi - Var 000° 0 kt METAR KBAD 071155Z AUTO 00000KT 8SM CLR 14/12 A3016 RMK AO2 SLP216 T01410116 10176 20140 52014
05:55
V
16 °C 10 mi - Var 000° 0 kt METAR KBAD 071055Z AUTO 00000KT 10SM CLR 16/13 A3014 RMK AO2 SLP209 T01570128
04:55
V
15 °C 10 mi - Var 000° 0 kt METAR KBAD 070955Z AUTO 00000KT 10SM CLR 15/13 A3013 RMK AO2 SLP206 T01500132
03:55
V
16 °C 10 mi - Var 000° 0 kt METAR KBAD 070855Z AUTO 00000KT 10SM CLR 16/13 A3012 RMK AO2 SLP202 T01550132 57003
02:55
V
16 °C 10 mi - Var 000° 0 kt METAR KBAD 070755Z AUTO 00000KT 10SM CLR 16/13 A3012 RMK AO2 SLP202 T01640133
01:55
V
17 °C 10 mi - Var 000° 0 kt METAR KBAD 070655Z AUTO 00000KT 10SM CLR 17/14 A3012 RMK AO2 SLP202 T01720139
00:55
V
17 °C 10 mi - 320° 320° 4 kt METAR KBAD 070555Z AUTO 32004KT 10SM FEW090 17/14 A3013 RMK AO2 SLP206 T01710140 10273 20171 403190108 52007

October 6, 2022

Time Code Weather Temp. Visibility Ceiling Wind METAR/SPECI
23:55
V
17 °C 10 mi 10,000 ft Var 000° 0 kt METAR KBAD 070455Z AUTO 00000KT 10SM BKN100 17/14 A3012 RMK AO2 SLP202 T01730136
22:55
V
18 °C 10 mi - Var 000° 0 kt METAR KBAD 070355Z AUTO 00000KT 10SM CLR 18/14 A3012 RMK AO2 SLP202 T01840137
21:55
V
19 °C 10 mi - 120° 120° 3 kt METAR KBAD 070255Z AUTO 12003KT 10SM CLR 19/14 A3011 RMK AO2 SLP199 T01910135 52012
20:55
V
21 °C 10 mi - Var 000° 0 kt METAR KBAD 070155Z AUTO 00000KT 10SM CLR 21/14 A3009 RMK AO2 SLP193 T02070141
19:55
V
21 °C 10 mi - Var 000° 0 kt METAR KBAD 070055Z AUTO 00000KT 10SM CLR 21/12 A3008 RMK AO2 SLP190 T02130122
17:55
V
30 °C 10 mi - 320° 320° 5 kt METAR KBAD 062255Z AUTO 32005KT 10SM CLR 30/10 A3007 RMK AO2 SLP186 T03020102
16:55
V
31 °C 10 mi - 320° 320° 8 kt METAR KBAD 062155Z AUTO 32008KT 10SM CLR 31/10 A3006 RMK AO2 SLP182 T03140096
15:55
V
32 °C 10 mi - 260° 260° 3 kt METAR KBAD 062055Z AUTO 26003KT 10SM CLR 32/10 A3007 RMK AO2 SLP186 T03160097 56022
14:55
V
32 °C 10 mi - 280° 280° 3 kt METAR KBAD 061955Z AUTO 28003KT 10SM CLR 32/09 A3008 RMK AO2 SLP189 T03150091
13:55
V
31 °C 10 mi - 300° 300° 9 kt METAR KBAD 061855Z AUTO 30009KT 10SM CLR 31/09 A3011 RMK AO2 SLP199 T03090091
12:55
V
29 °C 10 mi - 260° 260° 5 kt METAR KBAD 061755Z AUTO 26005KT 10SM CLR 29/10 A3014 RMK AO2 SLP209 T02930099 10294 20108 58011
11:55
V
28 °C 10 mi - 250° 250° 6 kt METAR KBAD 061655Z AUTO 25006KT 10SM CLR 28/09 A3016 RMK AO2 SLP216 T02810094
10:55
V
27 °C 10 mi - 220° 220° 4 kt METAR KBAD 061555Z AUTO 22004KT 10SM CLR 27/09 A3017 RMK AO2 SLP220 T02650089
09:55
V
23 °C 10 mi - 240° 240° 3 kt METAR KBAD 061455Z AUTO 24003KT 10SM CLR 23/12 A3017 RMK AO2 SLP220 T02280118 52013
08:55
V
17 °C 9 mi - Var 000° 0 kt METAR KBAD 061355Z AUTO 00000KT 9SM CLR 17/13 A3016 RMK AO2 SLP217 T01740125
07:55
V
12 °C 6 mi - Var 000° 0 kt METAR KBAD 061255Z AUTO 00000KT 6SM BR CLR 12/10 A3014 RMK AO2 SLP210 T01230102
06:55
V
12 °C 10 mi - Var 000° 0 kt METAR KBAD 061155Z AUTO 00000KT 10SM CLR 12/09 A3013 RMK AO2 SLP206 T01160093 10146 20114 53010
05:55
V
12 °C 10 mi - Var 000° 0 kt METAR KBAD 061055Z AUTO 00000KT 10SM CLR 12/09 A3011 RMK AO2 SLP199 T01180094
04:55
V
12 °C 10 mi - Var 000° 0 kt METAR KBAD 060955Z AUTO 00000KT 10SM CLR 12/09 A3010 RMK AO2 SLP196 T01190093 $
03:55
V
12 °C 10 mi - Var 000° 0 kt METAR KBAD 060855Z AUTO 00000KT 10SM CLR 12/10 A3010 RMK AO2 SLP196 T01230100 57002 VISNO RWY33 $
02:55
V
13 °C 10 mi - Var 000° 0 kt METAR KBAD 060755Z AUTO 00000KT 10SM CLR 13/10 A3010 RMK AO2 SLP196 T01270101
01:55
V
14 °C 10 mi - Var 000° 0 kt METAR KBAD 060655Z AUTO 00000KT 10SM CLR 14/10 A3010 RMK AO2 SLP196 T01360104
00:55
V
15 °C 10 mi - Var 000° 0 kt METAR KBAD 060555Z AUTO 00000KT 10SM CLR 15/11 A3011 RMK AO2 SLP199 T01470107 10238 20142 402930111 52004

October 5, 2022

Time Code Weather Temp. Visibility Ceiling Wind METAR/SPECI
23:55
V
14 °C 10 mi - Var 000° 0 kt METAR KBAD 060455Z AUTO 00000KT 10SM CLR 14/11 A3010 RMK AO2 SLP196 T01440106
22:55
V
16 °C 10 mi - Var 000° 0 kt METAR KBAD 060355Z AUTO 00000KT 10SM CLR 16/11 A3010 RMK AO2 SLPNO T01580110
21:55
V
16 °C 10 mi - Var 000° 0 kt METAR KBAD 060255Z AUTO 00000KT 10SM CLR 16/11 A3009 RMK AO2 SLPNO T01570113 52010
20:55
V
17 °C 10 mi - Var 000° 0 kt METAR KBAD 060155Z AUTO 00000KT 10SM CLR 17/12 A3009 RMK AO2 SLPNO T01730118
19:55
V
19 °C 10 mi - Var 000° 0 kt METAR KBAD 060055Z AUTO 00000KT 10SM CLR 19/11 A3008 RMK AO2 SLPNO T01940109
18:55
V
24 °C 10 mi - Var 000° 0 kt METAR KBAD 052355Z AUTO 00000KT 10SM CLR 24/10 A3006 RMK AO2 SLP183 T02390102 10293 20239 53005
17:55
V
28 °C 10 mi - 020° 020° 4 kt METAR KBAD 052255Z AUTO 02004KT 10SM CLR 28/08 A3005 RMK AO2 SLP179 T02750079
16:55
V
29 °C 10 mi - 010° 010° 4 kt METAR KBAD 052155Z AUTO 01004KT 10SM CLR 29/08 A3005 RMK AO2 SLP179 T02860077
15:55
V
29 °C 10 mi - Var 000° 0 kt METAR KBAD 052055Z AUTO 00000KT 10SM CLR 29/08 A3005 RMK AO2 SLP179 T02880079 57019
14:55
V
29 °C 10 mi - Var 000° 0 kt METAR KBAD 051955Z AUTO 00000KT 10SM CLR 29/09 A3006 RMK AO2 SLP182 T02910092
13:55
V
28 °C 10 mi - Var 000° 0 kt METAR KBAD 051855Z AUTO 00000KT 10SM CLR 28/08 A3008 RMK AO2 SLP189 T02810079
12:55
V
28 °C 10 mi - 050° 050° 5 kt METAR KBAD 051755Z AUTO 05005KT 10SM CLR 28/09 A3011 RMK AO2 SLP199 T02810089 10281 20111
11:55
V
26 °C 10 mi - Var 000° 0 kt METAR KBAD 051655Z AUTO 00000KT 10SM CLR 26/11 A3013 RMK AO2 SLP206 T02620111
10:56
V
24 °C 10 mi - 100° 100° 3 kt METAR KBAD 051556Z AUTO 10003KT 10SM CLR 24/12 A3015 RMK AO2 SLP213 T02400120
Older data

We and third parties follow your internet behavior on our website with cookies. If you continue, we assume you agree with our cookie policy. Learn more